createdAt,value
2022-12-18T00:01:27.932Z,12.07
2022-12-18T00:03:55.065Z,12.45
2022-12-18T00:06:21.730Z,17.90
2022-12-18T00:08:48.159Z,11.23
2022-12-18T00:11:16.312Z,12.38
2022-12-18T00:13:42.975Z,11.18
2022-12-18T00:16:11.142Z,11.85
2022-12-18T00:18:37.949Z,12.40
2022-12-18T00:21:06.209Z,11.18
2022-12-18T00:23:33.330Z,12.57
2022-12-18T00:26:00.695Z,13.45
2022-12-18T00:28:27.132Z,8.70
2022-12-18T00:31:04.350Z,8.88
2022-12-18T00:33:30.889Z,11.27
2022-12-18T00:36:07.874Z,10.48
2022-12-18T00:38:34.789Z,10.75
2022-12-18T00:41:01.170Z,10.27
2022-12-18T00:43:27.644Z,10.45
2022-12-18T00:45:54.117Z,10.93
2022-12-18T00:48:20.601Z,11.35
2022-12-18T00:50:48.639Z,10.52
2022-12-18T00:53:15.090Z,11.35
2022-12-18T00:55:41.753Z,13.52
2022-12-18T00:58:08.833Z,13.13
2022-12-18T01:00:35.275Z,11.63
2022-12-18T01:03:01.748Z,11.82
2022-12-18T01:05:28.262Z,10.85
2022-12-18T01:07:54.907Z,10.52
2022-12-18T01:10:21.299Z,10.25
2022-12-18T01:12:47.674Z,11.95
2022-12-18T01:15:14.484Z,11.65
2022-12-18T01:17:40.879Z,10.90
2022-12-18T01:20:07.811Z,11.82
2022-12-18T01:22:34.179Z,12.75
2022-12-18T01:25:00.572Z,11.00
2022-12-18T01:27:27.114Z,10.13
2022-12-18T01:29:53.586Z,9.32
2022-12-18T01:32:20.400Z,9.77
2022-12-18T01:34:46.935Z,10.73
2022-12-18T01:37:13.344Z,9.38
2022-12-18T01:39:39.792Z,9.55
2022-12-18T01:42:12.035Z,12.32
2022-12-18T01:45:07.026Z,10.10
2022-12-18T01:47:43.914Z,13.98
2022-12-18T01:50:21.135Z,15.48
2022-12-18T01:52:59.254Z,9.80
2022-12-18T01:55:27.408Z,13.77
2022-12-18T01:57:55.218Z,10.73
2022-12-18T02:00:22.077Z,10.88
2022-12-18T02:02:48.589Z,11.20
2022-12-18T02:05:17.709Z,8.50
2022-12-18T02:08:06.250Z,10.25
2022-12-18T02:10:41.424Z,10.82
2022-12-18T02:13:15.326Z,11.50
2022-12-18T02:15:43.401Z,7.63
2022-12-18T02:18:20.733Z,8.10
2022-12-18T02:21:19.375Z,7.95
2022-12-18T02:23:53.619Z,8.60
2022-12-18T02:26:31.103Z,8.40
2022-12-18T02:29:09.292Z,7.45
2022-12-18T02:31:37.921Z,9.20
2022-12-18T02:34:05.121Z,8.75
2022-12-18T02:36:31.497Z,9.98
2022-12-18T02:38:58.058Z,13.20
2022-12-18T02:41:24.449Z,7.53
2022-12-18T02:43:56.469Z,9.57
2022-12-18T02:46:28.942Z,9.18
2022-12-18T02:48:58.650Z,7.22
2022-12-18T02:51:30.009Z,13.85
2022-12-18T02:54:20.929Z,9.38
2022-12-18T02:56:52.737Z,8.13
2022-12-18T02:59:22.368Z,9.52
2022-12-18T03:01:53.379Z,10.55
2022-12-18T03:04:28.903Z,6.18
2022-12-18T03:06:56.966Z,9.55
2022-12-18T03:09:45.925Z,6.13
2022-12-18T03:12:33.335Z,9.10
2022-12-18T03:15:20.609Z,10.18
2022-12-18T03:17:51.801Z,11.45
2022-12-18T03:20:19.881Z,9.05
2022-12-18T03:22:47.655Z,9.57
2022-12-18T03:25:14.660Z,10.15
2022-12-18T03:27:43.509Z,8.70
2022-12-18T03:30:10.858Z,10.65
2022-12-18T03:32:45.575Z,13.20
2022-12-18T03:35:12.490Z,8.02
2022-12-18T03:37:38.882Z,10.77
2022-12-18T03:40:06.002Z,9.20
2022-12-18T03:42:42.534Z,6.40
2022-12-18T03:45:27.576Z,8.65
2022-12-18T03:48:00.783Z,7.00
2022-12-18T03:50:30.531Z,7.07
2022-12-18T03:53:12.185Z,10.38
2022-12-18T03:55:38.557Z,10.65
2022-12-18T03:58:05.014Z,11.95
2022-12-18T04:00:31.421Z,8.75
2022-12-18T04:02:58.011Z,7.20
2022-12-18T04:05:26.542Z,9.07
2022-12-18T04:07:52.978Z,8.48
2022-12-18T04:10:19.442Z,9.93
2022-12-18T04:12:45.877Z,8.43
2022-12-18T04:15:13.054Z,8.60
2022-12-18T04:17:39.720Z,9.45
2022-12-18T04:20:06.569Z,12.23
2022-12-18T04:22:32.978Z,8.38
2022-12-18T04:24:59.348Z,13.02
2022-12-18T04:27:25.729Z,11.20
2022-12-18T04:29:52.118Z,8.20
2022-12-18T04:32:18.491Z,8.15
2022-12-18T04:34:44.898Z,8.57
2022-12-18T04:37:11.269Z,8.50
2022-12-18T04:39:37.690Z,8.35
2022-12-18T04:42:04.095Z,9.05
2022-12-18T04:44:30.483Z,7.88
2022-12-18T04:46:56.879Z,8.20
2022-12-18T04:49:23.285Z,9.02
2022-12-18T04:51:49.694Z,7.80
2022-12-18T04:54:16.094Z,9.55
2022-12-18T04:56:42.470Z,7.78
2022-12-18T04:59:08.879Z,11.38
2022-12-18T05:01:35.436Z,7.85
2022-12-18T05:04:02.793Z,9.88
2022-12-18T05:06:29.295Z,10.30
2022-12-18T05:08:55.702Z,7.18
2022-12-18T05:11:22.075Z,7.40
2022-12-18T05:13:48.459Z,8.55
2022-12-18T05:16:14.944Z,8.07
2022-12-18T05:18:41.558Z,8.90
2022-12-18T05:21:07.943Z,8.18
2022-12-18T05:23:34.312Z,8.27
2022-12-18T05:26:02.101Z,11.48
2022-12-18T05:28:29.513Z,8.07
2022-12-18T05:30:57.828Z,8.65
2022-12-18T05:33:25.235Z,9.00
2022-12-18T05:35:55.619Z,8.30
2022-12-18T05:38:22.320Z,10.02
2022-12-18T05:40:49.467Z,8.50
2022-12-18T05:43:20.964Z,10.32
2022-12-18T05:45:47.912Z,9.68
2022-12-18T05:48:14.310Z,9.32
2022-12-18T05:50:42.013Z,10.02
2022-12-18T05:53:08.407Z,8.35
2022-12-18T05:55:38.874Z,10.52
2022-12-18T05:58:05.450Z,10.57
2022-12-18T06:00:32.526Z,9.00
2022-12-18T06:02:59.553Z,10.15
2022-12-18T06:05:26.300Z,8.60
2022-12-18T06:07:52.718Z,11.60
2022-12-18T06:10:19.983Z,12.13
2022-12-18T06:12:46.362Z,10.18
2022-12-18T06:15:13.981Z,13.60
2022-12-18T06:17:40.603Z,9.68
2022-12-18T06:20:07.357Z,11.07
2022-12-18T06:22:33.730Z,8.00
2022-12-18T06:25:00.130Z,8.55
2022-12-18T06:27:26.574Z,8.35
2022-12-18T06:29:52.982Z,8.68
2022-12-18T06:32:19.350Z,9.15
2022-12-18T06:34:45.953Z,10.10
2022-12-18T06:37:12.349Z,7.70
2022-12-18T06:39:38.796Z,11.48
2022-12-18T06:42:05.384Z,9.27
2022-12-18T06:44:31.752Z,8.70
2022-12-18T06:46:58.148Z,8.50
2022-12-18T06:49:30.152Z,8.18
2022-12-18T06:51:56.940Z,8.48
2022-12-18T06:54:23.314Z,7.82
2022-12-18T06:56:50.396Z,7.55
2022-12-18T06:59:17.469Z,9.45
2022-12-18T07:01:44.005Z,9.40
2022-12-18T07:04:10.517Z,10.93
2022-12-18T07:06:36.917Z,10.85
2022-12-18T07:09:03.310Z,9.98
2022-12-18T07:11:29.718Z,10.02
2022-12-18T07:13:56.104Z,10.18
2022-12-18T07:16:25.284Z,8.25
2022-12-18T07:18:53.021Z,14.02
2022-12-18T07:21:19.959Z,11.55
2022-12-18T07:23:46.349Z,13.52
2022-12-18T07:26:13.466Z,14.35
2022-12-18T07:28:40.337Z,11.68
2022-12-18T07:31:07.789Z,9.20
2022-12-18T07:33:34.400Z,8.98
2022-12-18T07:36:04.765Z,11.50
2022-12-18T07:38:31.863Z,7.50
2022-12-18T07:41:06.779Z,12.52
2022-12-18T07:43:33.857Z,8.43
2022-12-18T07:46:00.253Z,9.95
2022-12-18T07:48:26.722Z,8.27
2022-12-18T07:50:53.310Z,10.82
2022-12-18T07:53:19.781Z,9.80
2022-12-18T07:56:17.940Z,9.40
2022-12-18T07:58:33.079Z,7.05
2022-12-18T08:01:08.002Z,9.65
2022-12-18T08:03:34.449Z,8.18
2022-12-18T08:06:01.830Z,9.80
2022-12-18T08:08:28.881Z,7.97
2022-12-18T08:10:55.256Z,11.55
2022-12-18T08:13:21.704Z,9.65
2022-12-18T08:16:02.342Z,10.52
2022-12-18T08:18:28.851Z,12.30
2022-12-18T08:20:55.728Z,11.23
2022-12-18T08:23:22.333Z,9.77
2022-12-18T08:25:48.778Z,10.52
2022-12-18T08:28:15.203Z,7.28
2022-12-18T08:30:41.613Z,10.48
2022-12-18T08:33:08.261Z,8.18
2022-12-18T08:35:42.492Z,10.45
2022-12-18T08:38:11.952Z,8.18
2022-12-18T08:40:38.336Z,7.15
2022-12-18T08:43:04.768Z,9.98
2022-12-18T08:45:34.658Z,8.98
2022-12-18T08:48:01.121Z,9.43
2022-12-18T08:50:27.514Z,8.95
2022-12-18T08:52:53.897Z,7.50
2022-12-18T08:55:20.315Z,10.07
2022-12-18T08:57:49.706Z,6.30
2022-12-18T09:00:16.807Z,7.65
2022-12-18T09:02:43.752Z,10.13
2022-12-18T09:05:10.215Z,11.73
2022-12-18T09:07:36.899Z,9.18
2022-12-18T09:10:03.509Z,8.10
2022-12-18T09:12:29.887Z,12.35
2022-12-18T09:14:56.299Z,8.73
2022-12-18T09:17:22.992Z,7.55
2022-12-18T09:19:49.503Z,10.45
2022-12-18T09:22:15.894Z,10.27
2022-12-18T09:24:42.329Z,7.38
2022-12-18T09:27:08.701Z,7.47
2022-12-18T09:29:35.121Z,8.35
2022-12-18T09:32:01.489Z,11.15
2022-12-18T09:34:27.886Z,7.60
2022-12-18T09:36:54.308Z,11.85
2022-12-18T09:39:22.792Z,10.10
2022-12-18T09:41:54.379Z,8.43
2022-12-18T09:47:27.274Z,5.28
2022-12-18T09:49:59.316Z,8.32
2022-12-18T09:52:34.571Z,10.93
2022-12-18T09:55:37.632Z,10.30
2022-12-18T09:58:12.374Z,7.68
2022-12-18T10:00:38.921Z,7.75
2022-12-18T10:03:12.410Z,8.27
2022-12-18T10:05:57.096Z,10.77
2022-12-18T10:08:33.402Z,6.68
2022-12-18T10:11:16.234Z,9.23
2022-12-18T10:13:49.798Z,7.25
2022-12-18T10:16:20.964Z,8.18
2022-12-18T10:19:13.404Z,8.98
2022-12-18T10:21:42.918Z,7.57
2022-12-18T10:24:16.148Z,8.63
2022-12-18T10:26:42.567Z,10.13
2022-12-18T10:29:16.011Z,9.40
2022-12-18T10:31:42.518Z,7.30
2022-12-18T10:34:12.595Z,8.38
2022-12-18T10:36:38.985Z,7.75
2022-12-18T10:39:22.916Z,7.07
2022-12-18T10:41:50.607Z,8.93
2022-12-18T10:44:18.182Z,8.60
2022-12-18T10:46:49.417Z,7.90
2022-12-18T10:49:27.343Z,9.68
2022-12-18T10:52:25.460Z,6.60
2022-12-18T10:54:53.583Z,9.43
2022-12-18T10:57:39.325Z,10.35
2022-12-18T11:00:29.021Z,9.88
2022-12-18T11:02:55.687Z,7.97
2022-12-18T11:05:33.597Z,8.80
2022-12-18T11:08:00.551Z,8.82
2022-12-18T11:10:30.051Z,5.97
2022-12-18T11:12:56.794Z,8.40
2022-12-18T11:15:28.641Z,12.05
2022-12-18T11:17:55.084Z,10.68
2022-12-18T11:20:31.750Z,7.13
2022-12-18T11:23:13.357Z,9.98
2022-12-18T11:25:39.860Z,11.18
2022-12-18T11:28:40.028Z,8.88
2022-12-18T11:31:33.051Z,8.98
2022-12-18T11:34:29.107Z,7.25
2022-12-18T11:36:57.346Z,8.07
2022-12-18T11:39:45.838Z,9.02
2022-12-18T11:42:17.862Z,8.38
2022-12-18T11:44:58.395Z,10.43
2022-12-18T11:47:40.334Z,10.45
2022-12-18T11:52:39.669Z,9.85
2022-12-18T11:55:12.639Z,12.20
2022-12-18T11:58:04.150Z,6.97
2022-12-18T12:00:30.557Z,7.63
2022-12-18T12:03:09.077Z,10.00
2022-12-18T12:05:44.337Z,9.10
2022-12-18T12:08:32.503Z,9.82
2022-12-18T12:11:11.687Z,14.55
2022-12-18T12:14:13.566Z,9.52
2022-12-18T12:17:08.980Z,11.52
2022-12-18T12:19:54.037Z,8.68
2022-12-18T12:22:33.963Z,12.20
2022-12-18T12:25:22.081Z,10.32
2022-12-18T12:28:13.670Z,8.38
2022-12-18T12:30:53.238Z,11.15
2022-12-18T12:33:19.516Z,11.13
2022-12-18T12:36:13.683Z,13.55
2022-12-18T12:39:02.503Z,13.05
2022-12-18T12:41:31.516Z,12.07
2022-12-18T12:43:59.399Z,13.27
2022-12-18T12:46:26.163Z,13.18
2022-12-18T12:48:54.239Z,11.88
2022-12-18T12:51:22.712Z,12.10
2022-12-18T12:53:49.832Z,14.40
2022-12-18T12:56:20.391Z,13.15
2022-12-18T12:58:59.334Z,9.63
2022-12-18T13:01:27.764Z,12.15
2022-12-18T13:04:13.792Z,17.23
2022-12-18T13:06:47.608Z,11.23
2022-12-18T13:09:14.562Z,11.82
2022-12-18T13:11:42.696Z,13.55
2022-12-18T13:14:20.806Z,13.52
2022-12-18T13:16:47.187Z,11.02
2022-12-18T13:19:26.419Z,14.93
2022-12-18T13:21:54.386Z,11.18
2022-12-18T13:24:26.395Z,12.48
2022-12-18T13:26:52.838Z,13.32
2022-12-18T13:29:44.856Z,10.57
2022-12-18T13:32:24.914Z,16.15
2022-12-18T13:35:21.877Z,11.23
2022-12-18T13:37:53.054Z,11.75
2022-12-18T13:43:20.556Z,15.05
2022-12-18T13:45:59.631Z,13.77
2022-12-18T13:48:26.759Z,9.80
2022-12-18T13:51:01.353Z,11.98
2022-12-18T13:53:33.958Z,12.10
2022-12-18T13:56:00.374Z,17.13
2022-12-18T13:58:26.909Z,14.00
2022-12-18T14:00:53.706Z,13.45
2022-12-18T14:03:26.756Z,17.20
2022-12-18T14:05:54.910Z,18.25
2022-12-18T14:08:21.351Z,18.13
2022-12-18T14:10:49.975Z,14.15
2022-12-18T14:13:24.024Z,16.83
2022-12-18T14:15:50.715Z,18.80
2022-12-18T14:18:34.835Z,15.80
2022-12-18T14:21:02.087Z,16.75
2022-12-18T14:23:40.003Z,20.30
2022-12-18T14:26:29.609Z,15.05
2022-12-18T14:29:00.817Z,15.80
2022-12-18T14:31:30.521Z,15.88
2022-12-18T14:33:56.988Z,16.05
2022-12-18T14:36:25.037Z,19.23
2022-12-18T14:38:57.983Z,18.73
2022-12-18T14:41:24.656Z,19.50
2022-12-18T14:43:52.082Z,16.10
2022-12-18T14:46:33.976Z,20.48
2022-12-18T14:49:02.071Z,19.10
2022-12-18T14:51:29.774Z,15.90
2022-12-18T14:54:03.975Z,17.02
2022-12-18T14:56:37.314Z,14.18
2022-12-18T14:59:13.439Z,16.45
2022-12-18T15:04:24.374Z,15.98
2022-12-18T15:06:51.618Z,14.75
2022-12-18T15:09:27.209Z,17.33
2022-12-18T15:12:00.902Z,18.75
2022-12-18T15:14:34.474Z,24.35
2022-12-18T15:17:01.234Z,16.65
2022-12-18T15:19:35.234Z,19.83
2022-12-18T15:22:06.312Z,22.02
2022-12-18T15:24:33.268Z,19.95
2022-12-18T15:27:00.214Z,21.50
2022-12-18T15:29:26.618Z,17.20
2022-12-18T15:32:03.794Z,18.63
2022-12-18T15:34:30.334Z,20.02
2022-12-18T15:36:56.805Z,24.70
2022-12-18T15:39:23.226Z,19.73
2022-12-18T15:41:49.661Z,21.10
2022-12-18T15:44:25.170Z,18.80
2022-12-18T15:46:51.592Z,20.90
2022-12-18T15:49:17.991Z,22.75
2022-12-18T15:51:44.407Z,16.80
2022-12-18T15:54:14.534Z,19.77
2022-12-18T15:56:41.421Z,17.17
2022-12-18T15:59:17.831Z,22.83
2022-12-18T16:01:48.781Z,20.13
2022-12-18T16:04:16.570Z,19.73
2022-12-18T16:07:12.660Z,21.35
2022-12-18T16:09:29.586Z,21.38
2022-12-18T16:11:55.983Z,21.83
2022-12-18T16:14:40.662Z,22.20
2022-12-18T16:17:10.174Z,17.58
2022-12-18T16:19:36.592Z,17.90
2022-12-18T16:22:02.982Z,19.58
2022-12-18T16:24:30.978Z,18.83
2022-12-18T16:27:00.521Z,21.40
2022-12-18T16:29:27.746Z,18.35
2022-12-18T16:32:00.173Z,21.10
2022-12-18T16:34:28.947Z,15.65
2022-12-18T16:37:04.947Z,21.02
2022-12-18T16:39:32.878Z,17.77
2022-12-18T16:42:02.655Z,19.02
2022-12-18T16:44:33.225Z,20.95
2022-12-18T16:46:59.620Z,19.35
2022-12-18T16:49:26.096Z,21.27
2022-12-18T16:51:52.514Z,20.35
2022-12-18T16:54:19.629Z,14.50
2022-12-18T16:56:48.498Z,19.67
2022-12-18T16:59:14.917Z,17.95
2022-12-18T17:01:42.245Z,17.80
2022-12-18T17:04:09.258Z,19.42
2022-12-18T17:06:39.991Z,24.02
2022-12-18T17:09:07.619Z,18.27
2022-12-18T17:11:34.446Z,17.27
2022-12-18T17:14:05.535Z,19.35
2022-12-18T17:16:32.051Z,17.67
2022-12-18T17:19:01.892Z,17.42
2022-12-18T17:21:31.551Z,16.90
2022-12-18T17:24:00.329Z,20.05
2022-12-18T17:26:26.746Z,16.10
2022-12-18T17:28:53.146Z,16.25
2022-12-18T17:31:21.585Z,14.35
2022-12-18T17:33:48.576Z,17.50
2022-12-18T17:36:15.125Z,16.65
2022-12-18T17:38:41.519Z,18.15
2022-12-18T17:41:08.679Z,18.55
2022-12-18T17:43:35.180Z,22.83
2022-12-18T17:46:05.967Z,17.40
2022-12-18T17:48:34.699Z,17.45
2022-12-18T17:51:05.246Z,19.83
2022-12-18T17:53:31.658Z,16.55
2022-12-18T17:55:58.691Z,13.70
2022-12-18T17:58:25.115Z,16.27
2022-12-18T18:00:51.555Z,15.05
2022-12-18T18:03:18.147Z,15.15
2022-12-18T18:05:44.756Z,16.48
2022-12-18T18:08:11.131Z,14.50
2022-12-18T18:10:38.002Z,19.67
2022-12-18T18:13:05.386Z,18.17
2022-12-18T18:15:31.769Z,15.52
2022-12-18T18:17:58.183Z,16.75
2022-12-18T18:20:24.592Z,15.27
2022-12-18T18:22:51.107Z,12.55
2022-12-18T18:25:17.653Z,17.55
2022-12-18T18:27:44.496Z,14.23
2022-12-18T18:30:13.907Z,16.25
2022-12-18T18:32:40.330Z,14.57
2022-12-18T18:35:15.707Z,12.43
2022-12-18T18:37:51.195Z,14.77
2022-12-18T18:40:18.219Z,14.48
2022-12-18T18:42:44.854Z,18.17
2022-12-18T18:45:11.288Z,15.00
2022-12-18T18:47:37.699Z,14.13
2022-12-18T18:50:04.504Z,13.20
2022-12-18T18:52:30.905Z,13.88
2022-12-18T18:55:12.929Z,8.93
2022-12-18T18:57:40.197Z,12.02
2022-12-18T19:00:07.416Z,11.75
2022-12-18T19:02:34.135Z,12.43
2022-12-18T19:05:00.637Z,13.25
2022-12-18T19:07:30.244Z,13.32
2022-12-18T19:12:25.165Z,14.48
2022-12-18T19:14:53.898Z,11.73
2022-12-18T19:17:23.699Z,11.18
2022-12-18T19:19:54.432Z,12.55
2022-12-18T19:22:20.819Z,10.70
2022-12-18T19:24:47.221Z,14.00
2022-12-18T19:27:13.601Z,11.50
2022-12-18T19:29:40.070Z,13.10
2022-12-18T19:32:06.546Z,9.65
2022-12-18T19:34:33.074Z,13.95
2022-12-18T19:37:00.237Z,9.68
2022-12-18T19:39:26.910Z,10.52
2022-12-18T19:41:53.786Z,12.18
2022-12-18T19:44:20.705Z,14.52
2022-12-18T19:46:49.410Z,10.55
2022-12-18T19:49:18.130Z,10.68
2022-12-18T19:51:45.030Z,13.52
2022-12-18T19:54:16.987Z,9.90
2022-12-18T19:56:46.013Z,11.45
2022-12-18T19:59:12.810Z,9.88
2022-12-18T20:01:41.857Z,12.00
2022-12-18T20:04:17.166Z,11.35
2022-12-18T20:07:11.242Z,11.07
2022-12-18T20:09:37.804Z,10.02
2022-12-18T20:12:06.220Z,10.77
2022-12-18T20:14:32.655Z,11.32
2022-12-18T20:16:59.130Z,13.52
2022-12-18T20:19:26.961Z,12.25
2022-12-18T20:21:54.662Z,12.07
2022-12-18T20:24:21.078Z,14.10
2022-12-18T20:26:47.987Z,13.13
2022-12-18T20:29:15.525Z,12.65
2022-12-18T20:31:41.968Z,14.02
2022-12-18T20:34:08.489Z,12.23
2022-12-18T20:36:36.254Z,13.23
2022-12-18T20:39:05.417Z,14.40
2022-12-18T20:41:38.325Z,11.75
2022-12-18T20:44:22.236Z,11.88
2022-12-18T20:46:51.925Z,14.45
2022-12-18T20:49:18.339Z,12.43
2022-12-18T20:51:44.762Z,12.52
2022-12-18T20:54:12.028Z,11.55
2022-12-18T20:56:38.558Z,14.45
2022-12-18T20:59:04.962Z,17.17
2022-12-18T21:01:31.535Z,11.82
2022-12-18T21:03:57.987Z,16.95
2022-12-18T21:06:28.058Z,14.02
2022-12-18T21:08:57.071Z,15.18
2022-12-18T21:11:30.769Z,12.13
2022-12-18T21:13:57.387Z,12.93
2022-12-18T21:16:24.994Z,16.20
2022-12-18T21:18:52.614Z,12.55
2022-12-18T21:21:26.612Z,14.60
2022-12-18T21:23:53.808Z,13.95
2022-12-18T21:26:26.991Z,13.25
2022-12-18T21:28:59.204Z,14.93
2022-12-18T21:31:27.366Z,10.80
2022-12-18T21:33:58.328Z,13.20
2022-12-18T21:36:28.687Z,12.27
2022-12-18T21:38:55.296Z,15.85
2022-12-18T21:41:23.261Z,12.38
2022-12-18T21:43:50.301Z,12.57
2022-12-18T21:46:19.088Z,14.68
2022-12-18T21:48:45.520Z,12.35
2022-12-18T21:51:11.910Z,15.70
2022-12-18T21:53:39.379Z,17.42
2022-12-18T21:56:05.913Z,14.75
2022-12-18T21:58:32.310Z,12.32
2022-12-18T22:00:58.723Z,15.80
2022-12-18T22:03:25.272Z,14.40
2022-12-18T22:06:00.775Z,14.60
2022-12-18T22:08:35.981Z,13.15
2022-12-18T22:11:06.817Z,15.60
2022-12-18T22:13:33.238Z,16.13
2022-12-18T22:15:59.691Z,11.00
2022-12-18T22:18:26.091Z,13.18
2022-12-18T22:21:01.424Z,13.65
2022-12-18T22:23:28.146Z,13.70
2022-12-18T22:25:54.675Z,17.70
2022-12-18T22:28:21.062Z,15.60
2022-12-18T22:30:47.495Z,14.52
2022-12-18T22:33:15.244Z,13.52
2022-12-18T22:35:41.699Z,12.52
2022-12-18T22:38:08.467Z,11.63
2022-12-18T22:40:34.860Z,15.32
2022-12-18T22:43:01.511Z,13.50
2022-12-18T22:45:27.965Z,11.60
2022-12-18T22:47:54.434Z,16.88
2022-12-18T22:50:20.915Z,17.50
2022-12-18T22:52:47.317Z,13.85
2022-12-18T22:55:13.746Z,12.07
2022-12-18T22:57:40.183Z,18.10
2022-12-18T23:00:13.938Z,13.02
2022-12-18T23:02:40.398Z,14.23
2022-12-18T23:05:07.154Z,15.13
2022-12-18T23:07:33.557Z,13.23
2022-12-18T23:10:00.618Z,13.48
2022-12-18T23:12:27.298Z,15.32
2022-12-18T23:14:54.067Z,13.50
2022-12-18T23:17:20.469Z,14.02
2022-12-18T23:19:49.184Z,15.73
2022-12-18T23:22:16.717Z,12.93
2022-12-18T23:24:43.090Z,14.50
2022-12-18T23:27:11.700Z,13.07
2022-12-18T23:29:38.821Z,16.83
2022-12-18T23:32:05.221Z,15.98
2022-12-18T23:34:31.613Z,14.80
2022-12-18T23:36:58.043Z,13.23
2022-12-18T23:39:29.316Z,15.45
2022-12-18T23:41:57.515Z,15.75
2022-12-18T23:44:23.898Z,16.30
2022-12-18T23:46:50.412Z,18.30
2022-12-18T23:49:16.842Z,17.48
2022-12-18T23:51:43.458Z,14.52
2022-12-18T23:54:09.979Z,14.05
2022-12-18T23:56:36.375Z,16.75
2022-12-18T23:59:02.792Z,14.93
